Time;durP1;ratioP1;P1;durP2;ratioP2;P2;SDS_P1;SDS_P2;PMS_P1;PMS_P2;Temp;Humidity;BMP_temperature;BMP_pressure;BME280_temperature;BME280_humidity;BME280_pressure;Samples;Min_cycle;Max_cycle;Signal;HPM_P1;HPM_P2
2023/05/18 00:02:05;;;;;;;8.37;2.40;;;;;;;7.54;100.00;100978.25;5090664;28;20223;-70
2023/05/18 00:04:35;;;;;;;5.43;2.57;;;;;;;7.38;100.00;100976.97;5062215;28;20230;-71
2023/05/18 00:07:05;;;;;;;11.70;2.77;;;;;;;7.46;100.00;100966.53;5080262;28;20191;-70
2023/05/18 00:09:32;;;;;;;7.00;2.83;;;;;;;7.36;100.00;100963.41;5081023;28;20279;-71
2023/05/18 00:11:58;;;;;;;8.70;2.87;;;;;;;7.31;100.00;100968.63;5088542;28;20237;-69
2023/05/18 00:14:24;;;;;;;7.73;3.50;;;;;;;7.29;100.00;100962.69;5073494;28;20198;-71
2023/05/18 00:16:52;;;;;;;9.03;3.30;;;;;;;7.30;100.00;100966.13;5067051;28;20659;-69
2023/05/18 00:19:19;;;;;;;11.20;3.10;;;;;;;7.20;100.00;100971.47;5075817;28;20324;-73
2023/05/18 00:21:47;;;;;;;7.43;3.03;;;;;;;7.18;100.00;100963.00;5085906;28;20243;-71
2023/05/18 00:24:13;;;;;;;6.53;3.00;;;;;;;7.15;100.00;100962.25;5083392;28;20186;-72
2023/05/18 00:26:40;;;;;;;7.87;2.77;;;;;;;7.09;100.00;100960.69;5083135;28;20212;-72
2023/05/18 00:29:06;;;;;;;11.20;3.13;;;;;;;7.06;100.00;100956.47;5081500;28;20198;-69
2023/05/18 00:31:37;;;;;;;9.53;3.73;;;;;;;7.04;100.00;100957.41;5086008;28;20228;-69
2023/05/18 00:34:02;;;;;;;10.97;4.17;;;;;;;6.94;100.00;100957.63;5068325;28;20188;-71
2023/05/18 00:36:28;;;;;;;8.40;3.07;;;;;;;7.01;100.00;100955.78;5081599;28;20184;-71
2023/05/18 00:38:53;;;;;;;8.63;3.00;;;;;;;7.13;100.00;100954.59;5084499;28;20206;-69
2023/05/18 00:41:18;;;;;;;7.47;3.10;;;;;;;7.09;100.00;100953.88;5091027;28;20253;-69
2023/05/18 00:43:44;;;;;;;9.30;3.23;;;;;;;7.09;100.00;100958.97;5072532;28;20636;-69
2023/05/18 00:46:10;;;;;;;15.40;3.20;;;;;;;7.24;100.00;100956.88;5089272;28;20185;-69
2023/05/18 00:48:35;;;;;;;5.27;2.37;;;;;;;7.25;100.00;100954.25;5070080;28;20579;-69
2023/05/18 00:51:01;;;;;;;7.13;2.63;;;;;;;7.32;100.00;100949.84;5084665;28;20227;-70
2023/05/18 00:53:26;;;;;;;9.13;2.50;;;;;;;7.32;100.00;100948.97;5099842;28;20392;-69
2023/05/18 00:55:52;;;;;;;12.17;3.60;;;;;;;7.31;100.00;100960.13;5087726;28;20634;-69
2023/05/18 00:58:17;;;;;;;8.93;2.90;;;;;;;7.31;100.00;100960.94;5082001;28;20212;-68
2023/05/18 01:00:43;;;;;;;6.13;2.63;;;;;;;7.33;100.00;100955.78;5085899;28;20222;-69
2023/05/18 01:03:09;;;;;;;7.50;2.67;;;;;;;7.38;100.00;100959.06;5101972;28;20637;-69
2023/05/18 01:05:35;;;;;;;10.33;2.93;;;;;;;7.42;100.00;100953.00;5069600;28;20173;-69
2023/05/18 01:08:01;;;;;;;6.10;3.20;;;;;;;7.44;100.00;100958.88;5082105;28;20652;-69
2023/05/18 01:10:29;;;;;;;6.40;1.90;;;;;;;7.21;100.00;100955.25;5087891;28;20352;-69
2023/05/18 01:13:04;;;;;;;12.83;2.87;;;;;;;7.25;100.00;100959.38;5107642;28;20666;-69
2023/05/18 01:15:37;;;;;;;4.43;1.97;;;;;;;7.31;100.00;100950.72;5094694;28;20205;-70
2023/05/18 01:18:32;;;;;;;6.33;2.40;;;;;;;7.09;100.00;100950.44;5095621;28;20324;-69
2023/05/18 01:21:10;;;;;;;8.10;2.80;;;;;;;7.29;100.00;100947.34;5082169;28;20227;-69
2023/05/18 01:23:54;;;;;;;8.13;2.40;;;;;;;7.11;100.00;100953.81;5101893;28;20219;-69
2023/05/18 01:26:28;;;;;;;7.43;2.47;;;;;;;7.18;100.00;100946.81;5094423;28;20180;-69
2023/05/18 01:28:55;;;;;;;5.67;2.13;;;;;;;7.22;100.00;100949.25;5092554;28;20241;-69
2023/05/18 01:31:21;;;;;;;5.53;2.33;;;;;;;7.21;100.00;100946.72;5093621;28;20227;-68
2023/05/18 01:33:46;;;;;;;6.40;2.60;;;;;;;7.20;100.00;100948.44;5100559;28;20189;-68
2023/05/18 01:36:12;;;;;;;9.27;2.90;;;;;;;7.12;100.00;100945.25;5076227;28;20225;-69
2023/05/18 01:38:38;;;;;;;11.90;3.17;;;;;;;6.98;100.00;100945.59;5079792;28;20849;-69
2023/05/18 01:41:23;;;;;;;8.27;2.30;;;;;;;6.91;100.00;100946.66;5072723;28;20289;-70
2023/05/18 01:43:54;;;;;;;8.33;2.77;;;;;;;6.79;100.00;100943.50;5072438;28;20197;-70
2023/05/18 01:46:39;;;;;;;5.60;2.30;;;;;;;6.71;100.00;100949.69;5086830;28;20179;-70
2023/05/18 01:49:24;;;;;;;7.60;2.83;;;;;;;6.57;100.00;100947.50;5073141;28;20176;-69
2023/05/18 01:51:52;;;;;;;6.13;2.80;;;;;;;6.48;100.00;100940.88;5081958;28;20310;-70
2023/05/18 01:54:21;;;;;;;7.57;2.83;;;;;;;6.28;100.00;100946.47;5096246;28;20175;-69
2023/05/18 01:56:48;;;;;;;9.37;3.30;;;;;;;6.37;100.00;100946.25;5082791;28;20188;-69
2023/05/18 01:59:14;;;;;;;6.50;3.13;;;;;;;6.24;100.00;100939.72;5092524;28;20645;-71
2023/05/18 02:01:39;;;;;;;6.03;2.50;;;;;;;6.22;100.00;100941.50;5096441;28;20225;-70
2023/05/18 02:04:07;;;;;;;4.67;2.20;;;;;;;6.18;100.00;100932.22;5097422;28;20182;-70
2023/05/18 02:06:33;;;;;;;5.77;2.63;;;;;;;5.94;100.00;100937.81;5094160;28;20178;-69
2023/05/18 02:08:58;;;;;;;6.07;2.80;;;;;;;5.94;100.00;100942.94;5094433;28;20190;-68
2023/05/18 02:11:23;;;;;;;5.83;2.70;;;;;;;5.98;100.00;100942.00;5094324;28;20783;-68
2023/05/18 02:13:48;;;;;;;5.13;2.47;;;;;;;5.90;100.00;100938.75;5099184;28;20180;-69
2023/05/18 02:16:14;;;;;;;7.70;3.00;;;;;;;5.77;100.00;100932.25;5093666;28;20188;-68
2023/05/18 02:18:39;;;;;;;5.77;2.43;;;;;;;5.82;100.00;100938.09;5092528;28;20638;-69
2023/05/18 02:21:04;;;;;;;12.10;2.87;;;;;;;5.74;100.00;100935.69;5081843;28;20719;-69
2023/05/18 02:23:30;;;;;;;5.80;2.40;;;;;;;5.73;100.00;100936.56;5101488;28;20585;-68
2023/05/18 02:25:55;;;;;;;7.97;2.77;;;;;;;5.55;100.00;100942.88;5093446;28;20211;-69
2023/05/18 02:28:21;;;;;;;4.47;2.47;;;;;;;5.49;100.00;100935.34;5072446;28;20667;-69
2023/05/18 02:30:47;;;;;;;5.87;2.40;;;;;;;5.47;100.00;100937.94;5079991;28;20240;-69
2023/05/18 02:33:12;;;;;;;7.53;3.33;;;;;;;5.50;100.00;100932.75;5103622;28;20185;-68
2023/05/18 02:35:37;;;;;;;7.33;3.00;;;;;;;5.53;100.00;100941.22;5093434;28;20291;-68
2023/05/18 02:38:03;;;;;;;8.33;2.53;;;;;;;5.49;100.00;100928.53;5072207;28;20254;-71
2023/05/18 02:40:28;;;;;;;4.27;2.23;;;;;;;5.52;100.00;100935.31;5086430;28;20234;-70
2023/05/18 02:42:53;;;;;;;7.93;2.53;;;;;;;5.45;100.00;100926.91;5106097;28;20178;-69
2023/05/18 02:45:19;;;;;;;6.83;2.57;;;;;;;5.35;100.00;100933.06;5093218;28;20184;-69
2023/05/18 02:47:45;;;;;;;7.43;2.60;;;;;;;5.44;100.00;100932.03;5093683;28;20165;-69
2023/05/18 02:50:10;;;;;;;6.13;3.03;;;;;;;5.46;100.00;100935.41;5083752;28;20260;-69
2023/05/18 02:52:36;;;;;;;9.30;3.03;;;;;;;5.44;100.00;100930.31;5087438;28;20291;-68
2023/05/18 02:55:01;;;;;;;6.90;2.50;;;;;;;5.27;100.00;100933.22;5089172;28;20189;-68
2023/05/18 02:57:26;;;;;;;3.90;2.37;;;;;;;5.39;100.00;100936.41;5075127;28;20260;-69
2023/05/18 02:59:52;;;;;;;8.27;2.90;;;;;;;5.38;100.00;100942.38;5093243;28;20190;-69
2023/05/18 03:02:17;;;;;;;10.23;2.53;;;;;;;5.32;100.00;100939.06;5077065;28;20219;-69
2023/05/18 03:04:42;;;;;;;10.97;3.70;;;;;;;5.42;100.00;100947.41;5087086;28;20238;-69
2023/05/18 03:07:09;;;;;;;6.37;2.67;;;;;;;5.43;100.00;100943.13;5092837;28;20654;-70
2023/05/18 03:09:35;;;;;;;11.43;2.73;;;;;;;5.39;100.00;100947.44;5093714;28;20238;-69
2023/05/18 03:12:00;;;;;;;8.53;2.77;;;;;;;5.32;100.00;100950.97;5097115;28;20255;-69
2023/05/18 03:14:25;;;;;;;7.37;3.10;;;;;;;5.30;100.00;100948.47;5093433;28;20205;-68
2023/05/18 03:16:53;;;;;;;5.33;2.63;;;;;;;5.23;100.00;100954.53;5075412;28;20231;-67
2023/05/18 03:19:21;;;;;;;10.10;2.80;;;;;;;5.30;100.00;100947.63;5078533;28;20265;-68
2023/05/18 03:21:48;;;;;;;9.53;3.17;;;;;;;5.29;100.00;100951.03;5083960;28;20244;-69
2023/05/18 03:24:14;;;;;;;6.27;2.47;;;;;;;5.22;100.00;100945.22;5093631;28;20173;-69
2023/05/18 03:26:43;;;;;;;7.40;2.77;;;;;;;5.17;100.00;100947.88;5092352;28;20183;-69
2023/05/18 03:29:08;;;;;;;6.67;2.53;;;;;;;5.21;100.00;100950.34;5092844;28;20646;-68
2023/05/18 03:31:35;;;;;;;8.00;2.90;;;;;;;5.15;100.00;100944.50;5059883;28;20228;-70
2023/05/18 03:34:00;;;;;;;8.27;3.00;;;;;;;5.13;100.00;100942.84;5073984;28;20185;-68
2023/05/18 03:36:26;;;;;;;8.53;3.13;;;;;;;5.18;100.00;100943.59;5092287;28;20265;-68
2023/05/18 03:38:52;;;;;;;7.97;3.67;;;;;;;5.17;100.00;100947.88;5092791;28;20179;-68
2023/05/18 03:41:17;;;;;;;5.13;2.97;;;;;;;5.20;100.00;100948.66;5070821;28;20231;-68
2023/05/18 03:43:42;;;;;;;7.27;3.43;;;;;;;5.11;100.00;100950.53;5090857;28;20232;-68
2023/05/18 03:46:08;;;;;;;7.53;2.80;;;;;;;5.13;100.00;100946.22;5092311;28;20661;-68
2023/05/18 03:48:33;;;;;;;7.27;3.20;;;;;;;5.12;100.00;100952.22;5093080;28;20180;-68
2023/05/18 03:50:58;;;;;;;8.30;2.87;;;;;;;5.25;100.00;100952.81;5067990;28;20220;-68
2023/05/18 03:53:25;;;;;;;8.07;3.20;;;;;;;5.17;100.00;100950.41;5092642;28;20185;-68
2023/05/18 03:55:50;;;;;;;8.37;2.50;;;;;;;5.28;100.00;100950.22;5088304;28;20176;-69
2023/05/18 03:58:15;;;;;;;10.30;3.00;;;;;;;5.28;100.00;100954.47;5082052;28;20180;-68
2023/05/18 04:00:41;;;;;;;5.50;2.73;;;;;;;5.30;100.00;100953.56;5086867;28;20255;-69
2023/05/18 04:03:13;;;;;;;9.63;3.33;;;;;;;5.29;100.00;100959.53;5103002;28;20225;-69
2023/05/18 04:05:38;;;;;;;7.67;2.70;;;;;;;5.43;100.00;100953.31;5090597;28;20181;-69
2023/05/18 04:08:04;;;;;;;4.80;2.40;;;;;;;5.45;100.00;100959.25;5092130;28;20230;-69
2023/05/18 04:10:30;;;;;;;4.63;2.63;;;;;;;5.48;100.00;100965.13;5084909;28;20323;-68
2023/05/18 04:12:55;;;;;;;9.00;3.50;;;;;;;5.45;100.00;100966.91;5103998;28;20200;-69
2023/05/18 04:15:20;;;;;;;8.47;2.87;;;;;;;5.50;100.00;100962.56;5091679;28;20284;-69
2023/05/18 04:17:49;;;;;;;6.97;2.50;;;;;;;5.42;100.00;100962.72;5070888;28;20190;-68
2023/05/18 04:20:14;;;;;;;7.27;2.90;;;;;;;5.60;100.00;100970.88;5075644;28;20176;-67
2023/05/18 04:22:42;;;;;;;5.77;2.50;;;;;;;5.71;100.00;100961.28;5106146;28;20223;-68
2023/05/18 04:25:10;;;;;;;7.77;2.93;;;;;;;5.81;100.00;100965.31;5091388;28;20195;-68
2023/05/18 04:27:36;;;;;;;7.77;2.67;;;;;;;5.87;100.00;100973.75;5092382;28;20255;-68
2023/05/18 04:30:01;;;;;;;9.03;3.00;;;;;;;6.02;100.00;100964.94;5091437;28;20183;-68
2023/05/18 04:32:29;;;;;;;9.90;3.73;;;;;;;6.11;100.00;100970.66;5060532;28;20229;-69
2023/05/18 04:34:57;;;;;;;8.53;2.67;;;;;;;6.13;100.00;100971.47;5068216;28;20619;-69
2023/05/18 04:37:22;;;;;;;6.00;2.13;;;;;;;6.32;100.00;100965.97;5083136;28;20200;-69
2023/05/18 04:39:47;;;;;;;3.40;2.50;;;;;;;6.35;100.00;100973.56;5091700;28;20653;-69
2023/05/18 04:42:13;;;;;;;8.60;2.97;;;;;;;6.29;100.00;100974.53;5080092;28;20226;-70
2023/05/18 04:44:38;;;;;;;5.23;2.67;;;;;;;6.55;100.00;100973.09;5094672;28;20626;-69
2023/05/18 04:47:07;;;;;;;5.20;2.53;;;;;;;6.63;100.00;100972.91;5095647;28;20277;-70
2023/05/18 04:49:32;;;;;;;7.57;2.57;;;;;;;6.85;100.00;100973.22;5077902;28;20178;-70
2023/05/18 04:51:58;;;;;;;9.87;2.90;;;;;;;6.98;100.00;100973.75;5100287;28;20712;-69
2023/05/18 04:54:25;;;;;;;10.40;3.60;;;;;;;7.06;100.00;100973.56;5096085;28;20229;-70
2023/05/18 04:56:51;;;;;;;7.07;3.10;;;;;;;7.25;100.00;100974.75;5083727;28;20195;-70
2023/05/18 04:59:17;;;;;;;6.63;3.00;;;;;;;7.31;100.00;100976.31;5094348;28;20220;-70
2023/05/18 05:01:43;;;;;;;7.53;2.53;;;;;;;7.36;100.00;100973.63;5097616;28;20245;-68
2023/05/18 05:04:08;;;;;;;9.83;2.80;;;;;;;7.41;100.00;100980.28;5080040;28;20511;-69
2023/05/18 05:06:33;;;;;;;8.13;2.70;;;;;;;7.50;100.00;100976.63;5077168;28;20235;-69
2023/05/18 05:08:58;;;;;;;10.40;3.23;;;;;;;7.75;100.00;100971.69;5095186;28;20180;-70
2023/05/18 05:11:24;;;;;;;7.33;2.40;;;;;;;7.89;100.00;100971.28;5095316;28;20707;-68
2023/05/18 05:13:49;;;;;;;9.53;2.23;;;;;;;8.08;100.00;100981.81;5082997;28;20191;-69
2023/05/18 05:16:15;;;;;;;9.37;3.13;;;;;;;8.08;100.00;100980.97;5095095;28;20201;-70
2023/05/18 05:18:40;;;;;;;11.93;2.70;;;;;;;8.18;100.00;100974.66;5093792;28;20184;-70
2023/05/18 05:21:05;;;;;;;8.43;2.43;;;;;;;8.43;100.00;100973.09;5090200;28;20689;-69
2023/05/18 05:23:31;;;;;;;5.50;2.10;;;;;;;8.47;100.00;100978.09;5102331;28;20234;-69
2023/05/18 05:25:56;;;;;;;8.83;2.93;;;;;;;8.55;100.00;100983.00;5094880;28;20399;-68
2023/05/18 05:28:21;;;;;;;5.07;2.00;;;;;;;8.61;100.00;100981.94;5095636;28;20301;-68
2023/05/18 05:30:46;;;;;;;5.13;2.37;;;;;;;8.76;100.00;100981.44;5090331;28;20227;-68
2023/05/18 05:33:12;;;;;;;8.60;2.30;;;;;;;8.74;100.00;100982.41;5105314;28;20210;-69
2023/05/18 05:35:37;;;;;;;7.37;2.10;;;;;;;8.78;100.00;100979.69;5094763;28;20317;-69
2023/05/18 05:38:02;;;;;;;6.27;2.50;;;;;;;8.75;99.95;100984.06;5094585;28;20180;-68
2023/05/18 05:40:28;;;;;;;7.17;2.33;;;;;;;8.74;100.00;100990.09;5087742;28;20720;-68
2023/05/18 05:42:53;;;;;;;7.67;2.60;;;;;;;8.82;100.00;100980.41;5107264;28;20634;-68
2023/05/18 05:45:18;;;;;;;9.43;2.70;;;;;;;8.87;99.44;100986.25;5094871;28;20251;-69
2023/05/18 05:47:43;;;;;;;7.03;2.77;;;;;;;8.93;99.21;100985.19;5094547;28;20172;-68
2023/05/18 05:50:09;;;;;;;10.43;2.33;;;;;;;8.95;98.52;100981.66;5084821;28;20619;-68
2023/05/18 05:52:34;;;;;;;5.80;2.50;;;;;;;9.01;98.53;100978.06;5109411;28;20192;-69
2023/05/18 05:54:59;;;;;;;8.43;2.73;;;;;;;8.98;97.54;100984.16;5074969;28;20596;-69
2023/05/18 05:57:25;;;;;;;8.97;3.10;;;;;;;9.19;97.68;100991.97;5094575;28;20516;-70
2023/05/18 05:59:50;;;;;;;6.40;2.87;;;;;;;9.15;96.97;100985.28;5093608;28;20657;-69
2023/05/18 06:02:15;;;;;;;7.10;2.60;;;;;;;9.16;95.98;100992.09;5097635;28;20234;-69
2023/05/18 06:04:42;;;;;;;6.90;2.23;;;;;;;9.35;nan;100994.88;5082820;28;20263;-69
2023/05/18 06:07:07;;;;;;;4.07;2.00;;;;;;;9.42;95.25;101000.63;5093806;28;20196;-69
2023/05/18 06:09:32;;;;;;;6.83;2.57;;;;;;;9.74;94.72;101004.63;5094387;28;20550;-69
2023/05/18 06:11:58;;;;;;;4.70;2.43;;;;;;;9.84;92.70;100999.97;5098425;28;20245;-69
2023/05/18 06:14:23;;;;;;;6.50;2.33;;;;;;;9.97;92.11;100998.63;5095508;28;20199;-69
2023/05/18 06:16:48;;;;;;;4.83;2.20;;;;;;;10.08;91.36;100994.81;5072257;28;20208;-69
2023/05/18 06:19:13;;;;;;;5.67;2.50;;;;;;;10.13;90.80;101001.47;5081729;28;20165;-70
2023/05/18 06:21:39;;;;;;;4.77;2.20;;;;;;;10.29;88.97;100999.09;5078418;28;20223;-69
2023/05/18 06:24:04;;;;;;;7.60;2.27;;;;;;;10.12;88.54;101006.63;5097221;28;20222;-69
2023/05/18 06:26:30;;;;;;;4.70;2.30;;;;;;;10.45;87.23;100998.56;5093681;28;20172;-69
2023/05/18 06:28:56;;;;;;;7.90;2.83;;;;;;;10.79;83.20;101003.19;5072535;28;20275;-70
2023/05/18 06:31:21;;;;;;;5.07;2.80;;;;;;;11.34;75.68;101008.63;5092614;28;20250;-70
2023/05/18 06:33:46;;;;;;;6.20;2.93;;;;;;;11.62;74.54;101016.00;5099511;28;20313;-70
2023/05/18 06:36:12;;;;;;;5.23;2.33;;;;;;;12.01;71.85;101014.31;5093070;28;20215;-70
2023/05/18 06:38:37;;;;;;;7.07;2.30;;;;;;;12.56;64.36;101016.03;5093503;28;20218;-69
2023/05/18 06:41:02;;;;;;;11.90;2.90;;;;;;;13.94;57.36;101002.16;5090534;28;20718;-68
2023/05/18 06:43:28;;;;;;;7.53;2.60;;;;;;;14.79;54.22;101007.81;5101193;28;20180;-69
2023/05/18 06:45:54;;;;;;;5.43;2.17;;;;;;;14.90;51.79;101009.78;5092081;28;20263;-69
2023/05/18 06:48:22;;;;;;;9.03;2.80;;;;;;;15.17;50.38;101017.69;5093660;28;20176;-69
2023/05/18 06:50:47;;;;;;;8.50;2.33;;;;;;;15.89;48.29;101014.25;5088811;28;20224;-70
2023/05/18 06:53:12;;;;;;;6.33;2.23;;;;;;;14.81;49.09;101018.91;5102912;28;20607;-70
2023/05/18 06:55:37;;;;;;;6.37;2.53;;;;;;;15.79;48.84;101023.53;5093000;28;20176;-70
2023/05/18 06:58:03;;;;;;;5.90;2.70;;;;;;;15.30;48.19;101025.53;5093369;28;20195;-69
2023/05/18 07:00:28;;;;;;;5.83;2.27;;;;;;;15.94;48.86;101030.38;5073953;28;20229;-70
2023/05/18 07:02:53;;;;;;;7.30;2.40;;;;;;;16.72;46.70;101022.84;5084946;28;20181;-69
2023/05/18 07:05:18;;;;;;;9.53;2.73;;;;;;;16.52;44.41;101032.78;5087740;28;20623;-70
2023/05/18 07:07:44;;;;;;;7.33;2.60;;;;;;;17.59;43.21;101029.13;5091515;28;20180;-70
2023/05/18 07:10:09;;;;;;;6.47;2.80;;;;;;;16.78;43.62;101025.03;5082106;28;20553;-69
2023/05/18 07:12:35;;;;;;;5.27;2.53;;;;;;;17.62;43.41;101022.06;5107756;28;20202;-69
2023/05/18 07:15:00;;;;;;;9.77;2.37;;;;;;;18.96;40.44;101027.25;5072215;28;20573;-70
2023/05/18 07:17:25;;;;;;;7.13;2.60;;;;;;;18.84;40.27;101026.34;5097962;28;20272;-70
2023/05/18 07:19:51;;;;;;;8.60;3.07;;;;;;;19.13;39.32;101028.59;5088392;28;20184;-69
2023/05/18 07:22:16;;;;;;;6.53;2.53;;;;;;;17.34;42.50;101019.59;5097950;28;20262;-69
2023/05/18 07:24:42;;;;;;;5.63;2.50;;;;;;;18.10;39.87;101021.31;5092801;28;20199;-69
2023/05/18 07:27:07;;;;;;;5.77;2.20;;;;;;;17.57;40.75;101032.78;5091101;28;20571;-69
2023/05/18 07:29:33;;;;;;;8.67;2.40;;;;;;;16.39;43.45;101024.94;5092505;28;20176;-69
2023/05/18 07:31:58;;;;;;;6.40;2.37;;;;;;;17.58;41.64;101024.06;5075489;28;20227;-69
2023/05/18 07:34:25;;;;;;;9.80;2.87;;;;;;;18.14;41.28;101022.78;5065359;28;20218;-69
2023/05/18 07:36:51;;;;;;;8.77;2.47;;;;;;;18.53;39.36;101026.88;5092148;28;20661;-69
2023/05/18 07:39:18;;;;;;;8.00;2.60;;;;;;;17.66;40.78;101026.09;5091541;28;20219;-69
2023/05/18 07:41:47;;;;;;;6.77;2.40;;;;;;;19.13;39.24;101016.38;5095521;28;20227;-69
2023/05/18 07:44:13;;;;;;;8.07;2.30;;;;;;;18.73;38.75;101026.31;5090140;28;20222;-69
2023/05/18 07:46:38;;;;;;;7.63;2.10;;;;;;;18.33;40.25;101022.28;5070547;28;20401;-70
2023/05/18 07:49:03;;;;;;;4.80;2.23;;;;;;;17.13;41.48;101013.25;5088273;28;20211;-69
2023/05/18 07:51:28;;;;;;;6.37;2.73;;;;;;;17.80;41.59;101019.94;5093208;28;20746;-69
2023/05/18 07:53:54;;;;;;;4.27;1.97;;;;;;;16.98;41.95;101010.78;5096495;28;20191;-70
2023/05/18 07:56:19;;;;;;;6.17;2.57;;;;;;;17.36;42.63;101014.28;5092059;28;20179;-69
2023/05/18 07:58:44;;;;;;;12.07;2.53;;;;;;;18.96;39.58;101007.22;5091101;28;20233;-69
2023/05/18 08:01:10;;;;;;;7.73;2.97;;;;;;;18.30;39.60;101010.31;5090504;28;20267;-69
2023/05/18 08:03:35;;;;;;;5.87;2.57;;;;;;;19.23;37.98;101011.28;5078809;28;20650;-69
2023/05/18 08:06:01;;;;;;;7.97;2.60;;;;;;;19.88;37.30;101008.06;5091648;28;20176;-68
2023/05/18 08:08:27;;;;;;;7.93;2.40;;;;;;;20.43;37.23;101005.38;5091050;28;20195;-69
2023/05/18 08:10:52;;;;;;;8.37;2.67;;;;;;;19.53;37.67;101007.25;5088534;28;20318;-68
2023/05/18 08:13:18;;;;;;;6.77;2.33;;;;;;;20.38;36.30;101013.59;5101025;28;20214;-69
2023/05/18 08:15:43;;;;;;;5.17;2.10;;;;;;;20.82;35.95;101002.25;5070277;28;20197;-69
2023/05/18 08:18:08;;;;;;;6.27;2.50;;;;;;;21.81;33.90;101012.97;5063597;28;20172;-69
2023/05/18 08:20:34;;;;;;;4.83;2.23;;;;;;;21.63;34.06;101011.97;5059343;28;20228;-69
2023/05/18 08:22:59;;;;;;;11.03;3.40;;;;;;;20.48;35.85;101016.28;5096810;28;20568;-68
2023/05/18 08:25:24;;;;;;;11.10;2.70;;;;;;;20.40;35.05;101010.84;5090239;28;20606;-69
2023/05/18 08:27:50;;;;;;;6.63;2.50;;;;;;;19.52;36.54;101009.03;5092004;28;20211;-70
2023/05/18 08:30:19;;;;;;;8.60;2.63;;;;;;;19.36;38.72;101005.94;5082611;28;20610;-68
2023/05/18 08:32:44;;;;;;;12.23;2.83;;;;;;;19.75;36.77;100993.34;5104664;28;20207;-71
2023/05/18 08:35:10;;;;;;;8.43;2.67;;;;;;;20.15;36.74;101003.22;5091432;28;20225;-71
2023/05/18 08:37:36;;;;;;;4.43;2.10;;;;;;;20.30;36.75;101002.94;5090488;28;20188;-71
2023/05/18 08:40:03;;;;;;;6.67;2.73;;;;;;;21.43;34.83;100998.78;5076055;28;20179;-71
2023/05/18 08:42:36;;;;;;;6.60;2.77;;;;;;;21.75;34.30;100993.38;5051047;28;20232;-68
2023/05/18 08:45:17;;;;;;;5.17;2.47;;;;;;;19.83;36.24;101003.19;5079466;28;20175;-71
2023/05/18 08:47:43;;;;;;;7.27;2.60;;;;;;;18.79;37.78;100992.00;5090379;28;20183;-70
2023/05/18 08:50:14;;;;;;;6.97;2.60;;;;;;;20.60;35.79;100996.13;5081203;28;20198;-71
2023/05/18 08:52:46;;;;;;;7.60;2.60;;;;;;;21.04;36.55;100994.22;5105571;28;20196;-70
2023/05/18 08:55:12;;;;;;;14.77;3.47;;;;;;;20.25;36.39;100997.25;5091263;28;20262;-71
2023/05/18 08:57:41;;;;;;;4.37;2.47;;;;;;;20.27;36.90;100987.53;5091643;28;20537;-70
2023/05/18 09:00:08;;;;;;;6.53;2.53;;;;;;;19.08;37.59;100992.44;5081068;28;20184;-70
2023/05/18 09:02:35;;;;;;;6.10;2.97;;;;;;;18.54;39.43;100997.28;5106104;28;20168;-71
2023/05/18 09:05:01;;;;;;;8.53;2.80;;;;;;;18.45;39.97;100979.69;5091328;28;20234;-69
2023/05/18 09:07:27;;;;;;;7.17;2.70;;;;;;;19.41;38.08;100985.56;5071732;28;20181;-70
2023/05/18 09:09:54;;;;;;;6.87;2.60;;;;;;;20.08;37.67;100988.16;5089536;28;20183;-70
2023/05/18 09:12:22;;;;;;;7.50;2.53;;;;;;;19.64;37.97;100991.56;5096002;28;20226;-71
2023/05/18 09:14:47;;;;;;;5.47;2.30;;;;;;;19.98;37.64;100991.53;5090996;28;20343;-70
2023/05/18 09:17:13;;;;;;;6.23;2.50;;;;;;;21.95;35.06;100980.31;5091215;28;20189;-69
2023/05/18 09:19:38;;;;;;;7.93;3.03;;;;;;;19.45;37.61;100988.72;5090249;28;20194;-70
2023/05/18 09:22:04;;;;;;;6.87;2.63;;;;;;;19.48;37.42;100972.84;5096007;28;20553;-71
2023/05/18 09:24:29;;;;;;;11.33;2.87;;;;;;;19.53;37.62;100986.38;5091325;28;20234;-70
2023/05/18 09:26:55;;;;;;;6.03;2.37;;;;;;;20.17;36.84;100977.00;5090964;28;20184;-71
2023/05/18 09:29:22;;;;;;;8.17;3.03;;;;;;;20.94;35.86;100975.06;5091935;28;20549;-68
2023/05/18 09:31:48;;;;;;;8.90;2.90;;;;;;;21.10;34.39;100974.59;5098128;28;20230;-68
2023/05/18 09:34:14;;;;;;;7.40;2.70;;;;;;;20.13;35.81;100986.00;5095769;28;20180;-68
2023/05/18 09:36:41;;;;;;;7.17;2.90;;;;;;;19.35;36.75;100986.84;5094617;28;20216;-70
2023/05/18 09:39:10;;;;;;;4.57;2.07;;;;;;;19.70;36.84;100979.81;5093029;28;20799;-70
2023/05/18 09:41:39;;;;;;;10.03;3.23;;;;;;;19.98;36.87;100980.25;5095702;28;20223;-71
2023/05/18 09:44:08;;;;;;;8.00;3.13;;;;;;;20.67;35.35;100975.56;5097472;28;20269;-69
2023/05/18 09:46:37;;;;;;;9.33;3.07;;;;;;;20.18;36.26;100981.28;5094955;28;20233;-70
2023/05/18 09:49:04;;;;;;;6.17;2.53;;;;;;;19.30;37.43;100970.75;5094457;28;20519;-71
2023/05/18 09:51:30;;;;;;;7.37;2.50;;;;;;;21.27;35.45;100966.09;5095775;28;20223;-71
2023/05/18 09:53:57;;;;;;;9.27;3.80;;;;;;;23.01;31.83;100971.66;5096951;28;20168;-69
2023/05/18 09:56:24;;;;;;;7.27;3.00;;;;;;;21.91;32.06;100974.53;5093812;28;20180;-69
2023/05/18 09:58:49;;;;;;;7.47;2.80;;;;;;;21.41;32.70;100966.72;5074080;28;20172;-70
2023/05/18 10:01:15;;;;;;;5.50;2.70;;;;;;;20.94;32.69;100962.78;5093234;28;20712;-70
2023/05/18 10:03:40;;;;;;;6.97;3.13;;;;;;;21.02;32.69;100963.94;5081198;28;20539;-70
2023/05/18 10:06:07;;;;;;;10.17;2.70;;;;;;;19.50;34.06;100968.34;5093680;28;20262;-71
2023/05/18 10:08:34;;;;;;;8.20;3.07;;;;;;;21.53;33.04;100963.03;5094030;28;20215;-71
2023/05/18 10:11:00;;;;;;;5.83;2.77;;;;;;;21.45;33.69;100947.97;5076223;28;20798;-71
2023/05/18 10:13:30;;;;;;;6.10;2.73;;;;;;;23.49;30.94;100946.16;5097045;28;20184;-70
2023/05/18 10:15:58;;;;;;;5.82;2.67;;;;;;;22.70;30.96;100945.69;5092946;28;20207;-71
2023/05/18 10:18:33;;;;;;;5.15;2.20;;;;;;;21.22;33.06;100944.75;5092709;28;20184;-70
2023/05/18 10:20:59;;;;;;;7.03;3.13;;;;;;;19.67;36.65;100944.38;5075737;28;20227;-70
2023/05/18 10:23:29;;;;;;;6.90;2.67;;;;;;;19.70;36.36;100955.47;5090280;28;20219;-69
2023/05/18 10:25:54;;;;;;;6.50;3.20;;;;;;;17.69;38.93;100953.88;5073080;28;20192;-69
2023/05/18 10:28:26;;;;;;;9.27;3.33;;;;;;;19.48;36.66;100942.38;5072180;28;20219;-69
2023/05/18 10:30:56;;;;;;;7.93;3.03;;;;;;;20.11;34.63;100939.13;5087206;28;20313;-70
2023/05/18 10:33:23;;;;;;;6.10;3.50;;;;;;;21.45;33.12;100940.13;5101850;28;20207;-69
2023/05/18 10:35:49;;;;;;;7.50;2.87;;;;;;;20.95;33.31;100940.91;5092963;28;20192;-71
2023/05/18 10:38:18;;;;;;;5.70;2.50;;;;;;;20.28;36.66;100935.16;5074925;28;20623;-76
2023/05/18 10:40:45;;;;;;;8.40;3.20;;;;;;;19.87;35.95;100934.13;5069739;28;20620;-79
2023/05/18 10:43:12;;;;;;;6.30;2.67;;;;;;;19.05;36.32;100934.47;5102689;28;20172;-76
2023/05/18 10:45:38;;;;;;;10.93;3.43;;;;;;;18.51;38.77;100926.31;5092647;28;20226;-75
2023/05/18 10:48:04;;;;;;;7.97;2.77;;;;;;;17.65;41.17;100928.19;5093036;28;20172;-68
2023/05/18 10:50:30;;;;;;;8.97;3.00;;;;;;;17.21;42.67;100935.59;5085941;28;20326;-74
2023/05/18 10:52:58;;;;;;;7.63;2.83;;;;;;;16.97;41.75;100928.53;5104993;28;20192;-69
2023/05/18 10:55:23;;;;;;;8.23;3.00;;;;;;;16.94;41.80;100927.00;5074456;28;20664;-68
2023/05/18 10:57:52;;;;;;;9.33;3.00;;;;;;;16.58;42.83;100925.06;5088249;28;20275;-69
2023/05/18 11:00:18;;;;;;;7.17;2.70;;;;;;;16.90;42.98;100914.28;5066346;28;20180;-69
2023/05/18 11:02:45;;;;;;;7.50;2.70;;;;;;;16.93;42.49;100924.47;5101340;28;20184;-69
2023/05/18 11:05:11;;;;;;;7.67;2.63;;;;;;;16.26;44.37;100926.25;5091793;28;20177;-69
2023/05/18 11:07:36;;;;;;;11.07;3.17;;;;;;;15.93;44.01;100929.28;5071896;28;20305;-69
2023/05/18 11:10:08;;;;;;;5.63;2.57;;;;;;;15.33;45.67;100929.47;5092681;28;20172;-69
2023/05/18 11:12:36;;;;;;;6.93;2.77;;;;;;;15.42;45.86;100919.47;5085777;28;20556;-69
2023/05/18 11:15:03;;;;;;;13.23;4.37;;;;;;;15.77;46.29;100916.41;5089775;28;20200;-69
2023/05/18 11:17:28;;;;;;;7.20;2.70;;;;;;;16.00;44.51;100911.53;5104976;28;20200;-69
2023/05/18 11:20:06;;;;;;;7.47;3.00;;;;;;;15.74;45.02;100908.81;5086963;28;20210;-70
2023/05/18 11:22:41;;;;;;;9.70;2.90;;;;;;;15.79;45.12;100897.22;5074800;27;20342;-69